createdAt,value
2024-02-08T00:00:19.714Z,24.08
2024-02-08T00:01:19.869Z,24.08
2024-02-08T00:02:19.771Z,24.09
2024-02-08T00:03:19.799Z,24.08
2024-02-08T00:04:19.951Z,24.08
2024-02-08T00:05:19.980Z,24.08
2024-02-08T00:06:19.997Z,24.08
2024-02-08T00:07:20.018Z,24.08
2024-02-08T00:08:20.072Z,24.07
2024-02-08T00:09:20.199Z,24.07
2024-02-08T00:10:20.231Z,24.07
2024-02-08T00:11:20.328Z,24.07
2024-02-08T00:12:20.372Z,24.07
2024-02-08T00:13:20.549Z,24.07
2024-02-08T00:14:20.478Z,24.07
2024-02-08T00:15:20.585Z,24.07
2024-02-08T00:16:20.595Z,24.06
2024-02-08T00:17:20.698Z,24.07
2024-02-08T00:18:20.927Z,24.07
2024-02-08T00:19:21.682Z,24.06
2024-02-08T00:20:20.912Z,24.07
2024-02-08T00:21:20.987Z,24.06
2024-02-08T00:22:21.039Z,24.06
2024-02-08T00:23:21.105Z,24.06
2024-02-08T00:24:21.213Z,24.06
2024-02-08T00:25:21.260Z,24.06
2024-02-08T00:26:21.270Z,24.06
2024-02-08T00:27:21.373Z,24.05
2024-02-08T00:28:21.499Z,24.06
2024-02-08T00:29:21.506Z,24.05
2024-02-08T00:30:21.636Z,24.05
2024-02-08T00:31:21.603Z,24.05
2024-02-08T00:32:21.685Z,24.04
2024-02-08T00:33:21.801Z,24.05
2024-02-08T00:34:21.895Z,24.05
2024-02-08T00:35:21.964Z,24.04
2024-02-08T00:36:21.945Z,24.04
2024-02-08T00:37:22.063Z,24.05
2024-02-08T00:38:22.138Z,24.04
2024-02-08T00:39:22.153Z,24.04
2024-02-08T00:40:22.216Z,24.04
2024-02-08T00:41:22.309Z,24.04
2024-02-08T00:42:22.367Z,24.04
2024-02-08T00:43:22.552Z,24.04
2024-02-08T00:44:22.665Z,24.04
2024-02-08T00:45:22.524Z,24.04
2024-02-08T00:46:22.693Z,24.03
2024-02-08T00:47:22.646Z,24.04
2024-02-08T00:48:22.794Z,24.03
2024-02-08T00:49:22.787Z,24.03
2024-02-08T00:50:22.883Z,24.03
2024-02-08T00:51:22.891Z,24.03
2024-02-08T00:52:22.979Z,24.02
2024-02-08T00:53:23.056Z,24.02
2024-02-08T00:54:23.100Z,24.02
2024-02-08T00:55:23.241Z,24.02
2024-02-08T00:56:23.206Z,24.02
2024-02-08T00:57:23.296Z,24.01
2024-02-08T00:58:23.461Z,24.02
2024-02-08T00:59:23.402Z,24.02
2024-02-08T01:00:23.657Z,24.01
2024-02-08T01:01:23.568Z,24.02
2024-02-08T01:02:23.660Z,24.02
2024-02-08T01:03:23.724Z,24.02
2024-02-08T01:04:23.771Z,24.02
2024-02-08T01:05:23.833Z,24.01
2024-02-08T01:06:23.934Z,24.02
2024-02-08T01:07:23.824Z,24.01
2024-02-08T01:08:24.061Z,24.02
2024-02-08T01:09:23.901Z,24.01
2024-02-08T01:10:24.014Z,24.01
2024-02-08T01:11:24.042Z,24.01
2024-02-08T01:12:24.106Z,24.01
2024-02-08T01:13:24.224Z,24.01
2024-02-08T01:14:24.221Z,24.00
2024-02-08T01:15:24.322Z,24.01
2024-02-08T01:16:24.399Z,24.01
2024-02-08T01:17:24.490Z,24.01
2024-02-08T01:18:24.470Z,24.00
2024-02-08T01:19:24.711Z,24.00
2024-02-08T01:20:24.575Z,24.00
2024-02-08T01:21:24.581Z,24.00
2024-02-08T01:22:24.722Z,24.00
2024-02-08T01:23:24.710Z,24.00
2024-02-08T01:24:24.699Z,24.00
2024-02-08T01:25:24.794Z,24.00
2024-02-08T01:26:24.862Z,23.99
2024-02-08T01:27:24.866Z,24.00
2024-02-08T01:28:24.905Z,23.99
2024-02-08T01:29:24.973Z,23.99
2024-02-08T01:30:25.048Z,23.99
2024-02-08T01:31:25.187Z,23.99
2024-02-08T01:32:25.159Z,23.99
2024-02-08T01:33:25.182Z,23.98
2024-02-08T01:34:25.655Z,23.98
2024-02-08T01:35:25.363Z,23.98
2024-02-08T01:36:25.285Z,23.98
2024-02-08T01:37:25.366Z,23.99
2024-02-08T01:38:25.411Z,23.98
2024-02-08T01:39:25.468Z,23.98
2024-02-08T01:40:25.586Z,23.98
2024-02-08T01:41:25.535Z,23.98
2024-02-08T01:42:25.590Z,23.98
2024-02-08T01:43:25.778Z,23.98
2024-02-08T01:44:25.658Z,23.98
2024-02-08T01:45:25.673Z,23.98
2024-02-08T01:46:25.760Z,23.98
2024-02-08T01:47:25.808Z,23.98
2024-02-08T01:48:25.839Z,23.97
2024-02-08T01:49:25.799Z,23.97
2024-02-08T01:50:25.815Z,23.97
2024-02-08T01:51:25.855Z,23.98
2024-02-08T01:52:25.940Z,23.97
2024-02-08T01:53:25.960Z,23.96
2024-02-08T01:54:25.976Z,23.96
2024-02-08T01:55:26.056Z,23.96
2024-02-08T01:56:26.074Z,23.96
2024-02-08T01:57:26.161Z,23.97
2024-02-08T01:58:26.260Z,23.96
2024-02-08T01:59:26.162Z,23.97
2024-02-08T02:00:26.188Z,23.96
2024-02-08T02:01:26.360Z,23.96
2024-02-08T02:02:26.259Z,23.95
2024-02-08T02:03:26.366Z,23.95
2024-02-08T02:04:26.350Z,23.95
2024-02-08T02:05:26.319Z,23.96
2024-02-08T02:06:26.360Z,23.95
2024-02-08T02:07:26.341Z,23.95
2024-02-08T02:08:26.333Z,23.95
2024-02-08T02:09:26.696Z,23.95
2024-02-08T02:10:26.407Z,23.95
2024-02-08T02:11:26.507Z,23.94
2024-02-08T02:12:26.453Z,23.94
2024-02-08T02:13:26.435Z,23.94
2024-02-08T02:14:26.432Z,23.94
2024-02-08T02:15:26.491Z,23.94
2024-02-08T02:16:26.510Z,23.94
2024-02-08T02:17:26.648Z,23.94
2024-02-08T02:18:26.610Z,23.95
2024-02-08T02:19:26.591Z,23.94
2024-02-08T02:20:26.623Z,23.94
2024-02-08T02:21:26.626Z,23.94
2024-02-08T02:22:26.655Z,23.93
2024-02-08T02:23:26.668Z,23.93
2024-02-08T02:24:26.687Z,23.93
2024-02-08T02:25:26.892Z,23.94
2024-02-08T02:26:26.761Z,23.94
2024-02-08T02:27:26.817Z,23.93
2024-02-08T02:28:26.844Z,23.93
2024-02-08T02:29:26.907Z,23.93
2024-02-08T02:30:26.822Z,23.93
2024-02-08T02:31:26.919Z,23.93
2024-02-08T02:32:27.078Z,23.93
2024-02-08T02:33:27.146Z,23.93
2024-02-08T02:34:27.113Z,23.93
2024-02-08T02:35:27.093Z,23.93
2024-02-08T02:36:27.017Z,23.93
2024-02-08T02:37:27.086Z,23.93
2024-02-08T02:38:27.053Z,23.92
2024-02-08T02:39:27.082Z,23.92
2024-02-08T02:40:27.136Z,23.92
2024-02-08T02:41:27.252Z,23.92
2024-02-08T02:42:27.215Z,23.92
2024-02-08T02:43:27.316Z,23.92
2024-02-08T02:44:27.195Z,23.92
2024-02-08T02:45:27.218Z,23.92
2024-02-08T02:46:27.180Z,23.92
2024-02-08T02:47:27.542Z,23.92
2024-02-08T02:48:27.387Z,23.92
2024-02-08T02:49:27.277Z,23.92
2024-02-08T02:50:27.348Z,23.91
2024-02-08T02:51:27.290Z,23.91
2024-02-08T02:52:27.409Z,23.92
2024-02-08T02:53:27.400Z,23.92
2024-02-08T02:54:27.409Z,23.91
2024-02-08T02:55:27.521Z,23.92
2024-02-08T02:56:27.480Z,23.91
2024-02-08T02:57:27.595Z,23.91
2024-02-08T02:58:27.732Z,23.92
2024-02-08T02:59:27.613Z,23.91
2024-02-08T03:00:27.668Z,23.91
2024-02-08T03:01:27.847Z,23.91
2024-02-08T03:02:27.735Z,23.91
2024-02-08T03:03:27.771Z,23.90
2024-02-08T03:04:27.776Z,23.90
2024-02-08T03:05:27.850Z,23.91
2024-02-08T03:06:27.890Z,23.91
2024-02-08T03:07:28.749Z,23.90
2024-02-08T03:08:28.062Z,23.90
2024-02-08T03:09:27.975Z,23.90
2024-02-08T03:10:28.032Z,23.90
2024-02-08T03:11:28.146Z,23.90
2024-02-08T03:12:28.257Z,23.90
2024-02-08T03:13:28.238Z,23.90
2024-02-08T03:14:28.178Z,23.90
2024-02-08T03:15:28.169Z,23.90
2024-02-08T03:16:28.160Z,23.90
2024-02-08T03:17:28.186Z,23.89
2024-02-08T03:18:28.255Z,23.89
2024-02-08T03:19:28.319Z,23.88
2024-02-08T03:20:28.361Z,23.88
2024-02-08T03:21:28.308Z,23.88
2024-02-08T03:22:28.391Z,23.89
2024-02-08T03:23:28.387Z,23.89
2024-02-08T03:24:28.363Z,23.89
2024-02-08T03:25:28.476Z,23.89
2024-02-08T03:26:28.456Z,23.89
2024-02-08T03:27:28.713Z,23.89
2024-02-08T03:28:28.589Z,23.88
2024-02-08T03:29:28.584Z,23.88
2024-02-08T03:30:28.666Z,23.89
2024-02-08T03:31:28.823Z,23.88
2024-02-08T03:32:28.821Z,23.88
2024-02-08T03:33:28.856Z,23.88
2024-02-08T03:34:29.123Z,23.88
2024-02-08T03:35:29.156Z,23.88
2024-02-08T03:36:28.995Z,23.88
2024-02-08T03:37:29.008Z,23.88
2024-02-08T03:38:29.045Z,23.88
2024-02-08T03:39:29.372Z,23.87
2024-02-08T03:40:29.192Z,23.88
2024-02-08T03:41:29.225Z,23.87
2024-02-08T03:42:29.126Z,23.88
2024-02-08T03:43:29.102Z,23.88
2024-02-08T03:44:29.144Z,23.87
2024-02-08T03:45:29.350Z,23.87
2024-02-08T03:46:29.185Z,23.87
2024-02-08T03:47:29.202Z,23.87
2024-02-08T03:48:29.212Z,23.87
2024-02-08T03:49:29.196Z,23.87
2024-02-08T03:50:29.182Z,23.87
2024-02-08T03:51:29.228Z,23.87
2024-02-08T03:52:29.277Z,23.87
2024-02-08T03:53:29.255Z,23.87
2024-02-08T03:54:29.311Z,23.86
2024-02-08T03:55:29.282Z,23.87
2024-02-08T03:56:29.267Z,23.87
2024-02-08T03:57:29.312Z,23.87
2024-02-08T03:58:29.370Z,23.86
2024-02-08T03:59:29.355Z,23.87
2024-02-08T04:00:29.624Z,23.86
2024-02-08T04:01:29.469Z,23.87
2024-02-08T04:02:29.414Z,23.86
2024-02-08T04:03:29.411Z,23.86
2024-02-08T04:04:29.391Z,23.86
2024-02-08T04:05:29.401Z,23.86
2024-02-08T04:06:29.433Z,23.86
2024-02-08T04:07:29.460Z,23.86
2024-02-08T04:08:29.448Z,23.86
2024-02-08T04:09:29.447Z,23.85
2024-02-08T04:10:29.541Z,23.85
2024-02-08T04:11:29.487Z,23.86
2024-02-08T04:12:29.534Z,23.85
2024-02-08T04:13:29.590Z,23.85
2024-02-08T04:14:29.496Z,23.84
2024-02-08T04:15:29.554Z,23.85
2024-02-08T04:16:29.592Z,23.85
2024-02-08T04:17:29.631Z,23.84
2024-02-08T04:18:29.691Z,23.84
2024-02-08T04:19:29.685Z,23.84
2024-02-08T04:20:29.566Z,23.84
2024-02-08T04:21:29.656Z,23.84
2024-02-08T04:22:29.664Z,23.83
2024-02-08T04:23:32.952Z,23.83
2024-02-08T04:24:29.650Z,23.84
2024-02-08T04:25:29.671Z,23.83
2024-02-08T04:26:29.636Z,23.84
2024-02-08T04:27:36.905Z,23.81
2024-02-08T04:28:36.966Z,23.82
2024-02-08T04:29:36.856Z,23.83
2024-02-08T04:30:36.862Z,23.83
2024-02-08T04:31:44.266Z,23.81
2024-02-08T04:32:44.331Z,23.82
2024-02-08T04:33:44.377Z,23.83
2024-02-08T04:34:44.410Z,23.83
2024-02-08T04:35:44.383Z,23.83
2024-02-08T04:36:44.390Z,23.83
2024-02-08T04:37:44.430Z,23.83
2024-02-08T04:38:44.387Z,23.83
2024-02-08T04:39:44.385Z,23.83
2024-02-08T04:40:44.451Z,23.84
2024-02-08T04:41:44.411Z,23.84
2024-02-08T04:42:44.469Z,23.84
2024-02-08T04:43:44.559Z,23.84
2024-02-08T04:44:44.507Z,23.84
2024-02-08T04:45:47.086Z,23.84
2024-02-08T04:46:44.577Z,23.83
2024-02-08T04:47:44.542Z,23.83
2024-02-08T04:48:44.484Z,23.83
2024-02-08T04:49:44.575Z,23.82
2024-02-08T04:50:44.499Z,23.83
2024-02-08T04:51:44.487Z,23.82
2024-02-08T04:52:44.487Z,23.82
2024-02-08T04:53:44.482Z,23.83
2024-02-08T04:54:44.477Z,23.83
2024-02-08T04:55:44.510Z,23.83
2024-02-08T04:56:44.479Z,23.82
2024-02-08T04:57:44.491Z,23.83
2024-02-08T04:59:08.077Z,23.82
2024-02-08T04:59:45.496Z,23.82
2024-02-08T05:00:44.505Z,23.82
2024-02-08T05:01:44.466Z,23.83
2024-02-08T05:02:44.488Z,23.83
2024-02-08T05:03:44.584Z,23.85
2024-02-08T05:04:44.876Z,23.85
2024-02-08T05:05:44.617Z,23.84
2024-02-08T05:06:44.707Z,23.84
2024-02-08T05:07:44.594Z,23.84
2024-02-08T05:08:44.737Z,23.82
2024-02-08T05:09:44.544Z,23.82
2024-02-08T05:10:44.662Z,23.80
2024-02-08T05:11:44.541Z,23.80
2024-02-08T05:12:44.535Z,23.79
2024-02-08T05:13:44.562Z,23.78
2024-02-08T05:14:44.546Z,23.76
2024-02-08T05:15:44.624Z,23.75
2024-02-08T05:16:44.518Z,23.74
2024-02-08T05:17:44.579Z,23.74
2024-02-08T05:18:44.528Z,23.73
2024-02-08T05:19:44.572Z,23.71
2024-02-08T05:20:44.512Z,23.73
2024-02-08T05:21:44.590Z,23.72
2024-02-08T05:22:44.539Z,23.72
2024-02-08T05:23:44.528Z,23.72
2024-02-08T05:24:44.619Z,23.71
2024-02-08T05:25:44.653Z,23.72
2024-02-08T05:26:44.745Z,23.72
2024-02-08T05:27:44.664Z,23.71
2024-02-08T05:28:44.645Z,23.70
2024-02-08T05:29:44.689Z,23.70
2024-02-08T05:30:44.737Z,23.69
2024-02-08T05:31:44.742Z,23.70
2024-02-08T05:32:44.771Z,23.69
2024-02-08T05:33:44.893Z,23.69
2024-02-08T05:34:44.860Z,23.70
2024-02-08T05:35:44.838Z,23.71
2024-02-08T05:36:44.888Z,23.71
2024-02-08T05:37:44.871Z,23.71
2024-02-08T05:38:44.969Z,23.71
2024-02-08T05:39:44.916Z,23.72
2024-02-08T05:40:44.942Z,23.72
2024-02-08T05:41:44.998Z,23.72
2024-02-08T05:42:44.985Z,23.73
2024-02-08T05:43:44.936Z,23.74
2024-02-08T05:44:45.017Z,23.74
2024-02-08T05:45:45.071Z,23.74
2024-02-08T05:46:44.958Z,23.75
2024-02-08T05:47:45.001Z,23.75
2024-02-08T05:48:45.029Z,23.76
2024-02-08T05:49:45.066Z,23.75
2024-02-08T05:50:45.052Z,23.76
2024-02-08T05:51:45.075Z,23.70
2024-02-08T05:52:45.062Z,23.60
2024-02-08T05:53:45.101Z,23.50
2024-02-08T05:54:45.230Z,23.40
2024-02-08T05:55:45.205Z,23.29
2024-02-08T05:56:45.210Z,23.19
2024-02-08T05:57:45.280Z,23.11
2024-02-08T05:58:45.310Z,23.03
2024-02-08T05:59:45.403Z,22.93
2024-02-08T06:00:45.518Z,22.85
2024-02-08T06:01:45.955Z,22.73
2024-02-08T06:02:45.587Z,22.65
2024-02-08T06:03:45.649Z,22.58
2024-02-08T06:04:45.749Z,22.51
2024-02-08T06:05:45.605Z,22.41
2024-02-08T06:06:45.636Z,22.36
2024-02-08T06:07:45.839Z,22.29
2024-02-08T06:08:45.751Z,22.25
2024-02-08T06:09:45.834Z,22.24
2024-02-08T06:10:45.734Z,22.23
2024-02-08T06:11:45.765Z,22.18
2024-02-08T06:12:46.572Z,22.14
2024-02-08T06:13:45.796Z,22.10
2024-02-08T06:14:45.857Z,22.05
2024-02-08T06:15:46.003Z,22.00
2024-02-08T06:16:46.001Z,21.96
2024-02-08T06:17:46.072Z,21.93
2024-02-08T06:18:46.235Z,21.93
2024-02-08T06:19:46.188Z,21.88
2024-02-08T06:20:46.193Z,21.85
2024-02-08T06:21:46.326Z,21.82
2024-02-08T06:22:46.329Z,21.79
2024-02-08T06:23:46.408Z,21.74
2024-02-08T06:24:48.715Z,21.72
2024-02-08T06:25:46.500Z,21.69
2024-02-08T06:26:46.433Z,21.69
2024-02-08T06:27:46.477Z,21.71
2024-02-08T06:28:46.470Z,21.70
2024-02-08T06:29:46.547Z,21.70
2024-02-08T06:30:46.533Z,21.71
2024-02-08T06:31:46.504Z,21.67
2024-02-08T06:32:46.913Z,21.64
2024-02-08T06:33:46.551Z,21.70
2024-02-08T06:34:46.817Z,21.79
2024-02-08T06:35:46.523Z,21.89
2024-02-08T06:36:46.537Z,22.00
2024-02-08T06:37:46.528Z,22.10
2024-02-08T06:38:46.504Z,22.20
2024-02-08T06:39:46.558Z,22.29
2024-02-08T06:40:46.464Z,22.37
2024-02-08T06:41:46.565Z,22.44
2024-02-08T06:42:46.518Z,22.52
2024-02-08T06:43:46.886Z,22.59
2024-02-08T06:44:46.464Z,22.67
2024-02-08T06:45:46.574Z,22.75
2024-02-08T06:46:46.468Z,22.82
2024-02-08T06:47:46.547Z,22.90
2024-02-08T06:48:46.657Z,22.98
2024-02-08T06:49:46.638Z,23.06
2024-02-08T06:50:46.623Z,23.13
2024-02-08T06:51:46.741Z,23.19
2024-02-08T06:52:46.818Z,23.25
2024-02-08T06:53:47.329Z,23.30
2024-02-08T06:54:46.856Z,23.33
2024-02-08T06:55:46.865Z,23.37
2024-02-08T06:56:46.836Z,23.41
2024-02-08T06:57:47.325Z,23.47
2024-02-08T06:58:46.876Z,23.52
2024-02-08T06:59:47.318Z,23.56
2024-02-08T07:00:47.037Z,23.61
2024-02-08T07:01:47.451Z,23.67
2024-02-08T07:02:46.943Z,23.72
2024-02-08T07:03:47.167Z,23.75
2024-02-08T07:04:47.019Z,23.79
2024-02-08T07:05:47.083Z,23.83
2024-02-08T07:06:47.550Z,23.85
2024-02-08T07:07:47.296Z,23.87
2024-02-08T07:08:47.229Z,23.92
2024-02-08T07:09:47.302Z,23.96
2024-02-08T07:10:47.413Z,24.01
2024-02-08T07:11:47.869Z,24.05
2024-02-08T07:12:47.601Z,24.07
2024-02-08T07:13:47.536Z,24.12
2024-02-08T07:14:47.585Z,24.15
2024-02-08T07:15:47.640Z,24.19
2024-02-08T07:16:47.912Z,24.24
2024-02-08T07:17:49.322Z,24.26
2024-02-08T07:18:52.332Z,24.30
2024-02-08T07:19:48.802Z,24.34
2024-02-08T07:20:47.719Z,24.37
2024-02-08T07:21:47.786Z,24.40
2024-02-08T07:22:47.918Z,24.44
2024-02-08T07:23:47.748Z,24.47
2024-02-08T07:24:47.744Z,24.49
2024-02-08T07:25:47.822Z,24.53
2024-02-08T07:26:47.761Z,24.55
2024-02-08T07:27:47.816Z,24.57
2024-02-08T07:28:47.744Z,24.60
2024-02-08T07:29:47.748Z,24.64
2024-02-08T07:30:47.774Z,24.67
2024-02-08T07:31:47.792Z,24.69
2024-02-08T07:32:47.819Z,24.72
2024-02-08T07:33:47.803Z,24.74
2024-02-08T07:34:47.903Z,24.77
2024-02-08T07:35:47.795Z,24.80
2024-02-08T07:36:47.841Z,24.82
2024-02-08T07:37:47.752Z,24.85
2024-02-08T07:38:47.832Z,24.84
2024-02-08T07:39:48.116Z,24.80
2024-02-08T07:40:47.822Z,24.76
2024-02-08T07:41:47.961Z,24.74
2024-02-08T07:42:47.747Z,24.74
2024-02-08T07:43:47.774Z,24.76
2024-02-08T07:44:47.779Z,24.79
2024-02-08T07:45:47.854Z,24.82
2024-02-08T07:46:47.820Z,24.85
2024-02-08T07:47:47.944Z,24.89
2024-02-08T07:48:48.059Z,24.94
2024-02-08T07:49:48.160Z,24.98
2024-02-08T07:50:48.056Z,25.03
2024-02-08T07:51:48.361Z,25.08
2024-02-08T07:52:48.260Z,25.14
2024-02-08T07:53:48.181Z,25.18
2024-02-08T07:54:48.339Z,25.22
2024-02-08T07:55:48.315Z,25.30
2024-02-08T07:56:48.796Z,25.33
2024-02-08T07:57:50.837Z,25.36
2024-02-08T07:58:48.487Z,25.38
2024-02-08T07:59:48.414Z,25.43
2024-02-08T08:00:48.505Z,25.46
2024-02-08T08:01:49.028Z,25.49
2024-02-08T08:02:48.789Z,25.52
2024-02-08T08:03:48.601Z,25.56
2024-02-08T08:04:49.703Z,25.60
2024-02-08T08:05:48.478Z,25.64
2024-02-08T08:06:49.196Z,25.66
2024-02-08T08:07:48.519Z,25.67
2024-02-08T08:08:50.274Z,25.71
2024-02-08T08:09:48.866Z,25.74
2024-02-08T08:10:48.499Z,25.75
2024-02-08T08:11:50.338Z,25.76
2024-02-08T08:12:48.632Z,25.79
2024-02-08T08:13:48.482Z,25.82
2024-02-08T08:14:48.822Z,25.84
2024-02-08T08:15:48.820Z,25.86
2024-02-08T08:16:48.430Z,25.89
2024-02-08T08:17:48.393Z,25.91
2024-02-08T08:18:48.534Z,25.93
2024-02-08T08:19:49.584Z,25.95
2024-02-08T08:20:48.879Z,25.97
2024-02-08T08:21:48.490Z,25.99
2024-02-08T08:22:48.506Z,26.01
2024-02-08T08:23:49.377Z,26.02
2024-02-08T08:24:48.524Z,26.03
2024-02-08T08:25:48.942Z,26.06
2024-02-08T08:26:48.495Z,26.07
2024-02-08T08:27:50.136Z,26.08
2024-02-08T08:28:49.374Z,26.11
2024-02-08T08:29:48.467Z,26.12
2024-02-08T08:30:48.890Z,26.15
2024-02-08T08:31:48.481Z,26.17
2024-02-08T08:32:48.611Z,26.18
2024-02-08T08:33:48.616Z,26.18
2024-02-08T08:34:48.704Z,26.18
2024-02-08T08:35:52.760Z,26.18
2024-02-08T08:36:48.497Z,26.06
2024-02-08T08:37:48.539Z,26.05
2024-02-08T08:38:48.466Z,26.06
2024-02-08T08:39:48.846Z,26.06
2024-02-08T08:40:48.513Z,26.07
2024-02-08T08:41:48.849Z,26.11
2024-02-08T08:42:48.573Z,26.14
2024-02-08T08:43:49.325Z,26.17
2024-02-08T08:44:48.462Z,26.18
2024-02-08T08:45:48.510Z,26.20
2024-02-08T08:46:48.599Z,26.22
2024-02-08T08:47:48.629Z,26.25
2024-02-08T08:48:48.647Z,26.22
2024-02-08T08:49:48.646Z,26.25
2024-02-08T08:50:48.452Z,26.25
2024-02-08T08:51:48.922Z,26.26
2024-02-08T08:52:49.605Z,26.27
2024-02-08T08:53:48.961Z,26.27
2024-02-08T08:54:48.506Z,26.27
2024-02-08T08:55:50.928Z,26.28
2024-02-08T08:56:49.741Z,26.27
2024-02-08T08:57:49.157Z,26.29
2024-02-08T08:58:50.870Z,26.30
2024-02-08T08:59:51.229Z,26.32
2024-02-08T09:00:49.248Z,26.34
2024-02-08T09:01:49.163Z,26.37
2024-02-08T09:02:49.262Z,26.38
2024-02-08T09:03:49.476Z,26.37
2024-02-08T09:04:49.506Z,26.38
2024-02-08T09:05:49.364Z,26.38
2024-02-08T09:06:49.740Z,26.39
2024-02-08T09:07:49.576Z,26.42
2024-02-08T09:08:49.926Z,26.40
2024-02-08T09:09:49.648Z,26.39
2024-02-08T09:10:49.694Z,26.39
2024-02-08T09:11:49.813Z,26.43
2024-02-08T09:12:49.793Z,26.44
2024-02-08T09:13:51.284Z,26.46
2024-02-08T09:14:49.920Z,26.47
2024-02-08T09:15:50.051Z,26.49
2024-02-08T09:16:50.055Z,26.52
2024-02-08T09:17:50.066Z,26.55
2024-02-08T09:18:50.946Z,26.56
2024-02-08T09:19:50.596Z,26.58
2024-02-08T09:20:50.939Z,26.59
2024-02-08T09:21:50.389Z,26.61
2024-02-08T09:22:50.229Z,26.61
2024-02-08T09:23:50.318Z,26.61
2024-02-08T09:24:50.523Z,26.62
2024-02-08T09:25:50.483Z,26.62
2024-02-08T09:26:50.788Z,26.59
2024-02-08T09:27:50.462Z,26.56
2024-02-08T09:28:50.474Z,26.59
2024-02-08T09:29:50.478Z,26.54
2024-02-08T09:30:50.582Z,26.50
2024-02-08T09:32:54.289Z,26.19
2024-02-08T09:33:54.344Z,26.11
2024-02-08T09:34:54.434Z,26.09
2024-02-08T09:35:54.238Z,26.03
2024-02-08T09:36:54.274Z,25.97
2024-02-08T09:37:54.299Z,25.91
2024-02-08T09:38:54.468Z,25.85
2024-02-08T09:39:54.782Z,25.82
2024-02-08T09:40:54.307Z,25.77
2024-02-08T09:41:54.268Z,25.68
2024-02-08T09:42:54.290Z,25.63
2024-02-08T09:43:54.398Z,25.65
2024-02-08T09:44:54.259Z,25.68
2024-02-08T09:45:54.458Z,25.75
2024-02-08T09:46:54.428Z,25.80
2024-02-08T09:47:54.575Z,25.84
2024-02-08T09:48:54.322Z,25.92
2024-02-08T09:49:54.425Z,26.00
2024-02-08T09:50:54.302Z,26.06
2024-02-08T09:51:55.772Z,26.14
2024-02-08T09:52:58.625Z,26.21
2024-02-08T09:53:55.999Z,26.29
2024-02-08T09:54:54.936Z,26.34
2024-02-08T09:55:54.525Z,26.37
2024-02-08T09:56:54.385Z,26.38
2024-02-08T09:57:56.020Z,26.41
2024-02-08T09:59:04.584Z,26.45
2024-02-08T09:59:55.391Z,26.50
2024-02-08T10:00:54.511Z,26.57
2024-02-08T10:01:54.554Z,26.62
2024-02-08T10:02:55.007Z,26.63
2024-02-08T10:03:54.514Z,26.66
2024-02-08T10:04:54.549Z,26.68
2024-02-08T10:05:55.044Z,26.73
2024-02-08T10:06:54.509Z,26.78
2024-02-08T10:07:54.427Z,26.81
2024-02-08T10:08:54.942Z,26.82
2024-02-08T10:09:54.646Z,26.84
2024-02-08T10:10:54.476Z,26.88
2024-02-08T10:11:55.433Z,26.89
2024-02-08T10:12:57.372Z,26.91
2024-02-08T10:13:55.219Z,26.93
2024-02-08T10:14:54.405Z,26.95
2024-02-08T10:15:54.491Z,26.96
2024-02-08T10:16:55.487Z,26.98
2024-02-08T10:17:54.590Z,26.99
2024-02-08T10:18:54.990Z,27.02
2024-02-08T10:19:54.558Z,27.03
2024-02-08T10:20:54.398Z,27.03
2024-02-08T10:21:54.815Z,27.03
2024-02-08T10:22:54.402Z,27.05
2024-02-08T10:23:54.427Z,27.06
2024-02-08T10:24:54.485Z,27.09
2024-02-08T10:25:54.486Z,27.07
2024-02-08T10:26:54.519Z,27.10
2024-02-08T10:27:54.471Z,27.12
2024-02-08T10:28:54.963Z,27.11
2024-02-08T10:29:54.511Z,27.10
2024-02-08T10:30:54.595Z,27.09
2024-02-08T10:31:54.516Z,27.07
2024-02-08T10:32:55.107Z,27.08
2024-02-08T10:33:54.651Z,27.07
2024-02-08T10:34:54.593Z,27.04
2024-02-08T10:35:54.500Z,27.02
2024-02-08T10:36:54.455Z,27.00
2024-02-08T10:37:55.609Z,26.91
2024-02-08T10:38:54.572Z,26.73
2024-02-08T10:39:54.492Z,26.53
2024-02-08T10:40:54.482Z,26.35
2024-02-08T10:41:54.541Z,26.18
2024-02-08T10:42:54.956Z,26.07
2024-02-08T10:43:56.909Z,25.99
2024-02-08T10:44:54.967Z,25.94
2024-02-08T10:45:54.822Z,25.88
2024-02-08T10:46:54.588Z,25.78
2024-02-08T10:47:55.498Z,25.71
2024-02-08T10:48:55.076Z,25.67
2024-02-08T10:50:46.369Z,25.56
2024-02-08T10:51:47.894Z,25.57
2024-02-08T10:52:46.411Z,25.57
2024-02-08T10:53:46.390Z,25.57
2024-02-08T10:54:46.543Z,25.55
2024-02-08T10:55:46.399Z,25.52
2024-02-08T10:56:46.775Z,25.50
2024-02-08T10:57:46.501Z,25.53
2024-02-08T10:58:46.474Z,25.49
2024-02-08T10:59:46.357Z,25.45
2024-02-08T11:00:46.369Z,25.47
2024-02-08T11:01:49.049Z,25.45
2024-02-08T11:02:47.011Z,25.42
2024-02-08T11:03:46.456Z,25.40
2024-02-08T11:04:46.401Z,25.38
2024-02-08T11:05:49.245Z,25.34
2024-02-08T11:06:46.553Z,25.33
2024-02-08T11:07:46.683Z,25.29
2024-02-08T11:08:47.010Z,25.26
2024-02-08T11:09:46.608Z,25.37
2024-02-08T11:10:46.495Z,25.52
2024-02-08T11:11:46.345Z,25.66
2024-02-08T11:12:46.406Z,25.78
2024-02-08T11:13:46.414Z,25.90
2024-02-08T11:14:46.363Z,26.01
2024-02-08T11:15:46.447Z,26.13
2024-02-08T11:16:46.521Z,26.24
2024-02-08T11:17:46.427Z,26.31
2024-02-08T11:18:47.323Z,26.39
2024-02-08T11:19:46.559Z,26.46
2024-02-08T11:20:46.404Z,26.56
2024-02-08T11:21:46.561Z,26.63
2024-02-08T11:22:46.445Z,26.69
2024-02-08T11:23:46.394Z,26.75
2024-02-08T11:24:46.381Z,26.82
2024-02-08T11:25:46.749Z,26.87
2024-02-08T11:26:46.423Z,26.93
2024-02-08T11:27:46.487Z,26.99
2024-02-08T11:28:46.544Z,27.03
2024-02-08T11:29:46.449Z,27.06
2024-02-08T11:30:46.442Z,27.09
2024-02-08T11:31:46.406Z,27.11
2024-02-08T11:32:46.410Z,27.13
2024-02-08T11:33:46.688Z,27.20
2024-02-08T11:34:47.086Z,27.26
2024-02-08T11:35:46.489Z,27.29
2024-02-08T11:36:46.478Z,27.28
2024-02-08T11:37:46.390Z,27.26
2024-02-08T11:38:46.465Z,27.24
2024-02-08T11:39:46.576Z,27.22
2024-02-08T11:40:46.498Z,27.20
2024-02-08T11:41:46.486Z,27.19
2024-02-08T11:42:46.481Z,27.16
2024-02-08T11:43:46.623Z,27.14
2024-02-08T11:44:46.446Z,27.14
2024-02-08T11:45:49.089Z,27.12
2024-02-08T11:46:46.673Z,27.09
2024-02-08T11:47:46.728Z,27.09
2024-02-08T11:48:46.657Z,27.07
2024-02-08T11:50:08.915Z,27.07
2024-02-08T11:50:46.378Z,27.03
2024-02-08T11:51:46.618Z,27.05
2024-02-08T11:52:46.481Z,27.05
2024-02-08T11:53:46.383Z,27.05
2024-02-08T11:54:46.453Z,27.05
2024-02-08T11:55:46.558Z,27.07
2024-02-08T11:56:46.392Z,27.08
2024-02-08T11:57:46.450Z,27.09
2024-02-08T11:58:46.436Z,27.08
2024-02-08T11:59:47.163Z,27.09
2024-02-08T12:00:46.453Z,27.10
2024-02-08T12:01:46.492Z,27.13
2024-02-08T12:02:46.380Z,27.13
2024-02-08T12:03:46.815Z,27.14
2024-02-08T12:04:46.687Z,27.15
2024-02-08T12:05:46.416Z,27.17
2024-02-08T12:06:46.471Z,27.19
2024-02-08T12:07:46.484Z,27.19
2024-02-08T12:08:47.038Z,27.20
2024-02-08T12:09:46.454Z,27.21
2024-02-08T12:10:46.540Z,27.23
2024-02-08T12:11:46.696Z,27.25
2024-02-08T12:12:46.494Z,27.30
2024-02-08T12:13:46.447Z,27.34
2024-02-08T12:14:46.425Z,27.40
2024-02-08T12:15:46.491Z,27.43
2024-02-08T12:16:46.520Z,27.43
2024-02-08T12:17:46.586Z,27.42
2024-02-08T12:18:47.172Z,27.43
2024-02-08T12:19:46.737Z,27.43
2024-02-08T12:20:46.699Z,27.43
2024-02-08T12:21:46.761Z,27.43
2024-02-08T12:22:46.780Z,27.42
2024-02-08T12:23:46.807Z,27.42
2024-02-08T12:24:46.955Z,27.41
2024-02-08T12:25:46.971Z,27.41
2024-02-08T12:26:46.964Z,27.42
2024-02-08T12:27:47.076Z,27.42
2024-02-08T12:28:47.088Z,27.42
2024-02-08T12:29:47.261Z,27.42
2024-02-08T12:30:47.226Z,27.41
2024-02-08T12:31:47.274Z,27.40
2024-02-08T12:32:47.420Z,27.40
2024-02-08T12:33:47.670Z,27.41
2024-02-08T12:34:47.512Z,27.41
2024-02-08T12:35:47.546Z,27.43
2024-02-08T12:36:47.710Z,27.47
2024-02-08T12:37:47.783Z,27.47
2024-02-08T12:38:47.745Z,27.47
2024-02-08T12:39:47.888Z,27.43
2024-02-08T12:40:47.944Z,27.42
2024-02-08T12:41:47.948Z,27.41
2024-02-08T12:42:48.304Z,27.41
2024-02-08T12:43:48.101Z,27.39
2024-02-08T12:44:48.141Z,27.37
2024-02-08T12:45:48.441Z,27.37
2024-02-08T12:46:48.341Z,27.36
2024-02-08T12:47:48.391Z,27.37
2024-02-08T12:48:48.631Z,27.36
2024-02-08T12:49:49.242Z,27.34
2024-02-08T12:50:48.625Z,27.34
2024-02-08T12:51:48.638Z,27.34
2024-02-08T12:52:48.696Z,27.33
2024-02-08T12:53:48.751Z,27.34
2024-02-08T12:54:48.848Z,27.34